< < Back
Terminal Aerodrome Forecast


Current Version              Previous Versions:   1  2  3  4  5  6  7  8  9  

Terminal Aerodrome Forecast

174
FTUS42 KFFC 230300 AAA
TAFCSG
TAF AMD
KCSG 230342Z 2304/2324 02006KT P6SM SKC
     FM230500 02004KT P6SM SCT005
      TEMPO 2306/2308 BKN005
     FM231400 08009G16KT P6SM FEW030=



Latest METAR

667
SAUS70 KWBC 231000
MTRCSG
METAR KCSG 230951Z AUTO 00000KT 10SM CLR 17/16 A3010 RMK AO2 SLP190
T01670156


USA.gov is the U.S. government's official web portal to all federal, state and local government web resources and services.